Time;durP1;ratioP1;P1;durP2;ratioP2;P2;SDS_P1;SDS_P2;PMS_P1;PMS_P2;Temp;Humidity;BMP_temperature;BMP_pressure;BME280_temperature;BME280_humidity;BME280_pressure;Samples;Min_cycle;Max_cycle;Signal;HPM_P1;HPM_P2
2023/01/20 00:01:11;;;;;;;7.95;4.65;;;0.00;94.10;;;;;;5021609;28;20041;-80
2023/01/20 00:03:40;;;;;;;6.85;4.70;;;0.10;94.20;;;;;;5037593;28;20124;-82
2023/01/20 00:06:06;;;;;;;8.27;5.03;;;0.10;94.20;;;;;;5037803;28;20076;-82
2023/01/20 00:08:32;;;;;;;7.47;5.28;;;0.10;94.30;;;;;;5054127;28;20053;-79
2023/01/20 00:11:02;;;;;;;6.20;4.45;;;0.10;94.30;;;;;;5054249;28;20052;-82
2023/01/20 00:13:27;;;;;;;6.93;4.78;;;0.10;94.40;;;;;;5021937;28;20045;-85
2023/01/20 00:15:53;;;;;;;7.75;5.00;;;0.10;94.40;;;;;;5037514;28;20043;-83
2023/01/20 00:18:19;;;;;;;9.05;5.85;;;0.10;94.40;;;;;;5037248;28;20124;-82
2023/01/20 00:20:44;;;;;;;7.97;5.47;;;0.10;94.50;;;;;;5037439;28;20041;-82
2023/01/20 00:23:10;;;;;;;7.40;5.60;;;0.10;94.50;;;;;;5037700;28;20048;-82
2023/01/20 00:25:36;;;;;;;8.85;6.47;;;0.10;94.50;;;;;;5017293;28;20069;-84
2023/01/20 00:28:02;;;;;;;8.45;6.13;;;0.10;94.60;;;;;;5039191;28;20037;-79
2023/01/20 00:30:28;;;;;;;11.68;6.50;;;0.10;94.60;;;;;;5037970;28;20102;-83
2023/01/20 00:32:54;;;;;;;10.93;6.35;;;0.10;94.60;;;;;;5037959;28;20722;-79
2023/01/20 00:35:19;;;;;;;8.00;5.55;;;0.10;94.50;;;;;;5020665;28;20551;-80
2023/01/20 00:37:45;;;;;;;9.38;5.90;;;0.00;94.40;;;;;;5020516;28;20045;-82
2023/01/20 00:40:11;;;;;;;7.68;6.28;;;0.00;94.30;;;;;;5053604;28;20044;-84
2023/01/20 00:42:37;;;;;;;7.05;5.50;;;0.00;94.30;;;;;;5020719;28;20128;-81
2023/01/20 00:45:03;;;;;;;10.27;6.82;;;-3276.70;94.10;;;;;;5020706;28;20124;-82
2023/01/20 00:47:28;;;;;;;7.88;5.97;;;-3276.60;94.20;;;;;;5036947;28;20068;-83
2023/01/20 00:49:54;;;;;;;8.10;5.72;;;-3276.60;94.20;;;;;;5020510;28;20048;-82
2023/01/20 00:52:20;;;;;;;7.82;6.70;;;-3276.60;94.20;;;;;;5037087;28;20049;-82
2023/01/20 00:54:45;;;;;;;8.68;6.32;;;-3276.50;94.20;;;;;;5020231;28;20033;-81
2023/01/20 00:57:11;;;;;;;10.90;7.22;;;-3276.50;94.20;;;;;;5020277;28;20040;-83
2023/01/20 00:59:37;;;;;;;9.48;7.28;;;-3276.50;94.10;;;;;;5036730;28;20048;-84
2023/01/20 01:02:03;;;;;;;11.23;8.00;;;-3276.50;94.20;;;;;;5036475;28;20043;-82
2023/01/20 01:04:28;;;;;;;8.40;6.88;;;-3276.50;94.20;;;;;;5020461;28;20044;-82
2023/01/20 01:06:54;;;;;;;11.57;7.90;;;-3276.50;94.20;;;;;;5018170;28;20047;-82
2023/01/20 01:09:20;;;;;;;13.43;7.85;;;-3276.50;94.20;;;;;;5035982;28;20088;-83
2023/01/20 01:11:49;;;;;;;11.60;7.95;;;-3276.50;94.20;;;;;;5036112;28;20051;-83
2023/01/20 01:14:15;;;;;;;9.23;7.05;;;-3276.50;94.20;;;;;;5018665;28;20037;-82
2023/01/20 01:16:41;;;;;;;10.43;7.55;;;-3276.50;94.20;;;;;;5019961;28;20052;-83
2023/01/20 01:19:06;;;;;;;10.88;7.60;;;-3276.50;94.20;;;;;;5019769;28;20485;-83
2023/01/20 01:21:32;;;;;;;11.23;7.68;;;-3276.40;94.30;;;;;;5036292;28;20040;-82
2023/01/20 01:23:58;;;;;;;10.10;7.38;;;-3276.50;94.30;;;;;;5018041;28;20131;-82
2023/01/20 01:26:24;;;;;;;12.77;6.60;;;-3276.40;94.20;;;;;;5034117;28;20080;-81
2023/01/20 01:28:50;;;;;;;10.15;7.45;;;-3276.40;94.20;;;;;;5049981;28;20128;-82
2023/01/20 01:31:17;;;;;;;8.57;6.70;;;-3276.30;94.20;;;;;;5050724;28;20048;-82
2023/01/20 01:33:43;;;;;;;10.15;7.70;;;-3276.30;94.20;;;;;;5034180;28;20497;-82
2023/01/20 01:36:12;;;;;;;11.40;5.72;;;-3276.20;94.20;;;;;;5017478;28;20072;-83
2023/01/20 01:38:38;;;;;;;9.32;5.25;;;-3276.30;94.30;;;;;;5019090;28;20048;-84
2023/01/20 01:41:04;;;;;;;7.53;5.47;;;-3276.30;94.10;;;;;;5052451;28;20494;-83
2023/01/20 01:43:35;;;;;;;8.05;4.97;;;-3276.30;94.60;;;;;;5019338;28;20068;-82
2023/01/20 01:46:02;;;;;;;6.88;3.90;;;-3276.30;94.60;;;;;;5036082;28;20033;-81
2023/01/20 01:48:41;;;;;;;6.30;4.50;;;-3276.40;95.10;;;;;;5036063;28;20045;-81
2023/01/20 01:51:30;;;;;;;8.90;4.38;;;-3276.40;95.00;;;;;;5036028;28;20064;-84
2023/01/20 01:54:00;;;;;;;6.22;3.40;;;-3276.50;95.00;;;;;;5052542;28;20048;-81
2023/01/20 01:56:28;;;;;;;5.85;3.38;;;-3276.50;95.20;;;;;;5052131;28;20045;-82
2023/01/20 01:58:58;;;;;;;6.13;3.85;;;-3276.50;94.90;;;;;;5019425;28;20045;-81
2023/01/20 02:01:25;;;;;;;7.25;3.47;;;-3276.50;95.00;;;;;;5052142;28;20045;-82
2023/01/20 02:04:00;;;;;;;6.60;3.65;;;-3276.50;95.20;;;;;;5052215;28;20048;-82
2023/01/20 02:06:31;;;;;;;5.95;3.28;;;-3276.60;95.20;;;;;;5051981;28;20616;-84
2023/01/20 02:09:00;;;;;;;5.35;3.53;;;-3276.60;95.10;;;;;;5052025;28;20044;-82
2023/01/20 02:11:28;;;;;;;3.67;2.92;;;-3276.60;95.40;;;;;;5052036;28;20102;-82
2023/01/20 02:13:54;;;;;;;7.50;4.00;;;-3276.60;95.20;;;;;;5051977;28;20118;-80
2023/01/20 02:16:31;;;;;;;5.65;3.38;;;-3276.60;95.40;;;;;;5035384;28;20044;-81
2023/01/20 02:19:26;;;;;;;5.35;3.53;;;-3276.60;95.30;;;;;;5035527;28;20044;-82
2023/01/20 02:22:11;;;;;;;7.03;3.53;;;-3276.60;95.30;;;;;;5035168;28;20120;-82
2023/01/20 02:25:25;;;;;;;5.85;3.53;;;-3276.50;95.30;;;;;;5035249;28;20037;-81
2023/01/20 02:28:23;;;;;;;6.10;3.83;;;-3276.60;95.20;;;;;;4975598;28;20592;-82
2023/01/20 02:31:10;;;;;;;7.30;4.00;;;-3276.50;95.30;;;;;;5051773;28;20086;-81
2023/01/20 02:34:00;;;;;;;5.70;4.07;;;-3276.60;95.40;;;;;;5035316;28;20076;-81
2023/01/20 02:36:29;;;;;;;5.75;3.42;;;-3276.60;95.30;;;;;;5034521;28;20041;-81
2023/01/20 02:39:10;;;;;;;5.50;4.13;;;-3276.60;95.20;;;;;;5035108;28;20124;-80
2023/01/20 02:41:59;;;;;;;5.38;3.95;;;-3276.60;95.20;;;;;;5034952;28;20489;-81
2023/01/20 02:44:41;;;;;;;5.93;4.20;;;-3276.60;95.20;;;;;;5035321;28;20508;-82
2023/01/20 02:47:12;;;;;;;6.00;4.10;;;-3276.60;95.30;;;;;;5035035;28;20048;-84
2023/01/20 02:49:55;;;;;;;6.32;4.22;;;-3276.50;95.50;;;;;;5035322;28;20045;-82
2023/01/20 02:52:29;;;;;;;4.95;3.72;;;-3276.50;95.40;;;;;;5034918;28;20048;-83
2023/01/20 02:54:58;;;;;;;8.27;3.93;;;-3276.50;95.20;;;;;;5035182;28;20045;-82
2023/01/20 02:57:29;;;;;;;6.20;3.60;;;-3276.50;95.30;;;;;;5051711;28;20041;-81
2023/01/20 03:00:02;;;;;;;8.73;4.10;;;-3276.50;95.30;;;;;;5034851;28;20041;-80
2023/01/20 03:02:29;;;;;;;6.72;5.00;;;-3276.50;95.30;;;;;;5034890;28;20029;-82
2023/01/20 03:05:07;;;;;;;6.78;5.13;;;-3276.50;95.30;;;;;;5051548;28;20048;-81
2023/01/20 03:07:35;;;;;;;9.32;5.88;;;-3276.50;95.10;;;;;;5034880;28;20040;-81
2023/01/20 03:10:05;;;;;;;9.25;5.55;;;-3276.50;95.20;;;;;;5051255;28;20056;-83
2023/01/20 03:12:38;;;;;;;7.70;5.32;;;-3276.50;95.20;;;;;;5051508;28;20128;-82
2023/01/20 03:15:05;;;;;;;8.88;6.10;;;-3276.50;95.20;;;;;;5034747;28;20037;-82
2023/01/20 03:17:32;;;;;;;11.68;6.38;;;-3276.50;95.20;;;;;;5035006;28;20110;-81
2023/01/20 03:19:59;;;;;;;9.13;6.47;;;-3276.50;95.20;;;;;;5051465;28;20401;-82
2023/01/20 03:22:25;;;;;;;8.63;5.90;;;-3276.50;95.20;;;;;;5034652;28;20106;-80
2023/01/20 03:24:51;;;;;;;11.80;7.75;;;-3276.50;95.20;;;;;;5018483;28;20393;-81
2023/01/20 03:27:17;;;;;;;11.93;7.43;;;-3276.50;95.20;;;;;;5051185;28;20041;-82
2023/01/20 03:29:42;;;;;;;11.98;6.95;;;-3276.50;95.10;;;;;;5018176;28;20033;-82
2023/01/20 03:32:10;;;;;;;11.70;7.05;;;-3276.50;95.10;;;;;;5018156;28;20045;-82
2023/01/20 03:34:39;;;;;;;12.55;7.13;;;-3276.50;95.20;;;;;;5034614;28;20083;-80
2023/01/20 03:37:05;;;;;;;13.48;7.95;;;-3276.50;95.20;;;;;;5051261;28;20116;-83
2023/01/20 03:39:32;;;;;;;12.45;7.90;;;-3276.50;95.20;;;;;;5018143;28;20037;-79
2023/01/20 03:42:51;;;;;;;11.00;7.53;;;-3276.50;95.20;;;;;;5051176;28;20041;-81
2023/01/20 03:45:26;;;;;;;12.27;7.57;;;-3276.50;95.10;;;;;;4974499;28;20039;-83
2023/01/20 03:48:02;;;;;;;10.18;7.72;;;-3276.50;95.20;;;;;;4974680;28;20046;-81
2023/01/20 03:50:34;;;;;;;12.60;8.45;;;-3276.50;95.10;;;;;;5032954;28;20053;-81
2023/01/20 03:53:46;;;;;;;13.40;8.68;;;-3276.50;95.00;;;;;;5037244;28;20055;-83
2023/01/20 03:56:23;;;;;;;13.27;9.57;;;-3276.50;95.10;;;;;;5038031;28;20076;-83
2023/01/20 03:58:52;;;;;;;14.80;10.85;;;-3276.50;95.40;;;;;;5054564;28;20041;-83
2023/01/20 04:01:30;;;;;;;14.95;11.07;;;-3276.50;95.60;;;;;;5054425;28;20045;-82
2023/01/20 04:03:58;;;;;;;17.90;11.15;;;-3276.50;95.50;;;;;;5037877;28;20048;-84
2023/01/20 04:06:26;;;;;;;20.17;12.45;;;-3276.50;95.20;;;;;;5038186;28;20041;-81
2023/01/20 04:09:18;;;;;;;19.35;12.75;;;-3276.50;95.60;;;;;;5054327;28;20056;-82
2023/01/20 04:11:44;;;;;;;20.83;14.82;;;-3276.50;95.50;;;;;;5037767;28;20045;-81
2023/01/20 04:14:10;;;;;;;23.60;15.15;;;-3276.50;95.60;;;;;;5054531;28;20052;-81
2023/01/20 04:16:36;;;;;;;23.77;15.35;;;-3276.60;95.70;;;;;;5021025;28;20067;-81
2023/01/20 04:19:02;;;;;;;23.98;15.57;;;-3276.60;95.60;;;;;;5054262;28;20056;-82
2023/01/20 04:21:40;;;;;;;24.85;15.80;;;-3276.60;95.70;;;;;;5037526;28;20412;-82
2023/01/20 04:24:11;;;;;;;25.27;15.73;;;-3276.70;95.90;;;;;;5037468;28;20068;-83
2023/01/20 04:26:37;;;;;;;26.15;16.15;;;-3276.60;95.80;;;;;;5053972;28;20039;-80
2023/01/20 04:29:07;;;;;;;23.60;15.20;;;-3276.70;95.50;;;;;;5020902;28;20033;-82
2023/01/20 04:31:36;;;;;;;28.70;17.40;;;-3276.70;95.70;;;;;;5021447;28;20485;-80
2023/01/20 04:34:03;;;;;;;28.10;17.05;;;-3276.70;95.90;;;;;;5053860;28;20497;-82
2023/01/20 04:36:28;;;;;;;27.38;17.88;;;-3276.70;96.00;;;;;;5037151;28;20045;-82
2023/01/20 04:38:54;;;;;;;28.08;17.13;;;-3276.70;96.20;;;;;;5020813;28;20067;-82
2023/01/20 04:41:20;;;;;;;29.90;17.42;;;-3276.70;95.90;;;;;;5004564;28;20037;-82
2023/01/20 04:43:46;;;;;;;27.85;17.50;;;0.00;95.70;;;;;;5037397;28;20040;-82
2023/01/20 04:46:13;;;;;;;29.10;18.48;;;0.00;95.80;;;;;;5037008;28;20033;-81
2023/01/20 04:48:39;;;;;;;30.80;18.92;;;-3276.70;95.70;;;;;;5053851;28;20422;-83
2023/01/20 04:51:06;;;;;;;27.25;17.10;;;-3276.70;95.90;;;;;;5020648;28;20044;-83
2023/01/20 04:53:32;;;;;;;33.58;18.00;;;-3276.70;96.10;;;;;;5036855;28;20041;-82
2023/01/20 04:55:57;;;;;;;29.95;17.77;;;-3276.60;96.10;;;;;;5036726;28;20048;-81
2023/01/20 04:58:23;;;;;;;28.42;16.42;;;-3276.70;96.10;;;;;;5020532;28;20473;-81
2023/01/20 05:00:49;;;;;;;28.75;17.45;;;-3276.60;96.20;;;;;;5003847;28;20120;-84
2023/01/20 05:03:14;;;;;;;29.85;18.10;;;-3276.60;96.00;;;;;;5035570;28;20094;-82
2023/01/20 05:05:40;;;;;;;30.27;18.70;;;-3276.60;95.90;;;;;;5019992;28;20374;-82
2023/01/20 05:08:06;;;;;;;31.83;19.00;;;-3276.50;95.80;;;;;;5036349;28;20128;-81
2023/01/20 05:10:32;;;;;;;32.15;18.30;;;-3276.50;95.90;;;;;;5036584;28;20099;-82
2023/01/20 05:12:59;;;;;;;36.45;20.08;;;-3276.50;96.20;;;;;;5036463;28;20137;-82
2023/01/20 05:15:24;;;;;;;32.13;18.67;;;-3276.50;96.00;;;;;;5053286;28;20041;-84
2023/01/20 05:17:50;;;;;;;34.83;19.52;;;-3276.50;96.20;;;;;;5036442;28;20496;-82
2023/01/20 05:20:17;;;;;;;36.08;19.85;;;-3276.50;95.90;;;;;;5020127;28;20091;-81
2023/01/20 05:22:43;;;;;;;32.40;19.88;;;-3276.50;95.90;;;;;;5003992;28;20375;-84
2023/01/20 05:25:09;;;;;;;34.47;19.73;;;-3276.50;95.80;;;;;;5052701;28;20090;-82
2023/01/20 05:27:36;;;;;;;34.47;19.63;;;-3276.50;96.00;;;;;;5036140;28;20041;-81
2023/01/20 05:30:04;;;;;;;38.20;20.17;;;-3276.50;96.10;;;;;;5017897;28;20033;-81
2023/01/20 05:32:30;;;;;;;35.17;19.63;;;-3276.50;95.70;;;;;;5059038;28;20037;-82
2023/01/20 05:34:55;;;;;;;49.03;21.75;;;-3276.50;95.80;;;;;;5042707;28;20033;-80
2023/01/20 05:37:21;;;;;;;99.65;24.63;;;-3276.50;95.90;;;;;;5008203;28;20045;-83
2023/01/20 05:39:47;;;;;;;137.82;27.00;;;-3276.50;95.90;;;;;;5026350;28;20457;-80
2023/01/20 05:42:13;;;;;;;175.40;30.33;;;-3276.50;96.20;;;;;;5025592;28;20041;-81
2023/01/20 05:44:38;;;;;;;160.32;31.38;;;-3276.50;96.70;;;;;;5041237;28;20091;-81
2023/01/20 05:47:04;;;;;;;114.43;25.20;;;-3276.50;96.40;;;;;;5043334;28;20098;-83
2023/01/20 05:49:30;;;;;;;205.00;34.78;;;-3276.50;96.50;;;;;;5025103;28;20124;-85
2023/01/20 05:51:55;;;;;;;163.25;34.08;;;-3276.50;96.60;;;;;;5025136;28;20076;-84
2023/01/20 05:54:21;;;;;;;221.85;35.95;;;-3276.60;96.20;;;;;;5043058;28;20393;-84
2023/01/20 05:56:48;;;;;;;168.90;30.85;;;-3276.60;96.60;;;;;;5040971;28;20038;-84
2023/01/20 05:59:13;;;;;;;182.93;31.27;;;-3276.60;96.90;;;;;;5043517;28;20516;-84
2023/01/20 06:01:39;;;;;;;156.57;30.88;;;-3276.60;97.40;;;;;;5023929;28;20073;-84
2023/01/20 06:04:05;;;;;;;117.72;33.72;;;-3276.60;97.50;;;;;;5010731;28;20039;-85
2023/01/20 06:06:31;;;;;;;166.05;31.83;;;-3276.60;97.60;;;;;;5016799;28;20065;-84
2023/01/20 06:08:57;;;;;;;135.98;32.90;;;-3276.60;97.60;;;;;;5032051;28;20528;-83
2023/01/20 06:11:22;;;;;;;152.43;33.47;;;-3276.60;97.80;;;;;;5032181;28;20049;-83
2023/01/20 06:13:48;;;;;;;146.45;34.53;;;-3276.60;97.80;;;;;;5015557;28;20049;-85
2023/01/20 06:16:16;;;;;;;152.25;37.97;;;-3276.60;97.80;;;;;;5031826;28;20045;-84
2023/01/20 06:18:42;;;;;;;116.47;33.63;;;-3276.60;97.80;;;;;;5032034;28;20041;-85
2023/01/20 06:21:08;;;;;;;120.10;32.65;;;-3276.60;98.00;;;;;;5032033;28;20048;-85
2023/01/20 06:23:34;;;;;;;75.93;29.98;;;-3276.60;98.00;;;;;;5015845;28;20048;-82
2023/01/20 06:26:05;;;;;;;93.95;29.17;;;-3276.70;98.00;;;;;;5032081;28;20482;-80
2023/01/20 06:28:32;;;;;;;73.10;29.63;;;-3276.70;98.10;;;;;;5031860;28;20647;-82
2023/01/20 06:31:03;;;;;;;94.45;34.55;;;-3276.70;98.00;;;;;;5031864;28;20529;-82
2023/01/20 06:37:10;;;;;;;84.68;33.70;;;-3276.70;98.00;;;;;;5032785;28;20549;-81
2023/01/20 06:39:36;;;;;;;78.65;31.65;;;-3276.70;98.00;;;;;;5015437;28;20120;-82
2023/01/20 06:42:02;;;;;;;71.25;31.95;;;-3276.70;98.20;;;;;;5015468;28;20405;-83
2023/01/20 06:44:28;;;;;;;88.55;36.47;;;-3276.70;98.10;;;;;;5031722;28;20049;-83
2023/01/20 06:46:56;;;;;;;94.78;35.13;;;0.00;98.20;;;;;;5031574;28;20043;-80
2023/01/20 06:49:21;;;;;;;95.90;37.50;;;0.00;98.10;;;;;;5015515;28;20087;-82
2023/01/20 06:51:48;;;;;;;87.53;34.83;;;0.00;98.10;;;;;;5031533;28;20041;-81
2023/01/20 06:54:14;;;;;;;99.82;37.40;;;0.00;98.00;;;;;;5015333;28;20136;-83
2023/01/20 06:56:40;;;;;;;91.32;36.17;;;0.00;97.90;;;;;;5031498;28;20073;-82
2023/01/20 06:59:06;;;;;;;91.78;36.00;;;0.00;97.80;;;;;;5031546;28;20087;-83
2023/01/20 07:01:31;;;;;;;98.97;39.60;;;0.10;97.90;;;;;;5031464;28;20216;-84
2023/01/20 07:03:57;;;;;;;99.00;42.33;;;0.00;97.80;;;;;;5015349;28;20037;-81
2023/01/20 07:06:33;;;;;;;99.53;38.25;;;0.10;97.40;;;;;;5031512;28;20041;-83
2023/01/20 07:08:59;;;;;;;108.00;42.47;;;0.10;97.30;;;;;;5031204;28;20054;-84
2023/01/20 07:11:26;;;;;;;104.68;40.30;;;0.10;97.20;;;;;;5015248;28;20457;-83
2023/01/20 07:13:52;;;;;;;116.80;43.85;;;0.10;97.40;;;;;;5031611;28;20041;-82
2023/01/20 07:16:17;;;;;;;105.47;41.90;;;0.10;97.70;;;;;;5031283;28;20061;-84
2023/01/20 07:18:47;;;;;;;95.45;41.50;;;0.10;97.60;;;;;;5014941;28;20042;-82
2023/01/20 07:21:13;;;;;;;110.05;42.38;;;0.20;97.30;;;;;;5031246;28;20087;-81
2023/01/20 07:23:39;;;;;;;116.70;45.33;;;0.10;97.50;;;;;;5031242;28;20069;-82
2023/01/20 07:26:07;;;;;;;107.95;45.53;;;0.20;97.60;;;;;;5014942;28;20047;-82
2023/01/20 07:28:34;;;;;;;97.57;41.47;;;0.20;97.10;;;;;;5035083;28;20048;-82
2023/01/20 07:31:03;;;;;;;103.20;41.92;;;0.30;97.00;;;;;;5035038;28;20041;-81
2023/01/20 07:33:29;;;;;;;100.47;40.58;;;0.30;96.90;;;;;;5034949;28;20046;-81
2023/01/20 07:35:55;;;;;;;98.88;40.95;;;0.30;97.00;;;;;;5034876;28;20044;-83
2023/01/20 07:38:21;;;;;;;109.03;43.22;;;0.30;96.90;;;;;;5034633;28;20397;-81
2023/01/20 07:40:46;;;;;;;96.10;40.90;;;0.30;97.10;;;;;;5035050;28;20038;-83
2023/01/20 07:43:12;;;;;;;147.32;73.18;;;0.30;96.90;;;;;;5035046;28;20042;-83
2023/01/20 07:45:38;;;;;;;127.45;63.92;;;0.40;96.90;;;;;;5035034;28;20128;-83
2023/01/20 07:48:06;;;;;;;111.43;50.47;;;0.40;96.80;;;;;;5018698;28;20040;-83
2023/01/20 07:50:33;;;;;;;98.32;50.13;;;0.40;97.00;;;;;;5034771;28;20105;-80
2023/01/20 07:52:59;;;;;;;105.43;46.75;;;0.40;96.80;;;;;;5034621;28;20081;-81
2023/01/20 07:55:24;;;;;;;109.25;47.92;;;0.40;96.90;;;;;;5034850;28;20092;-84
2023/01/20 07:57:50;;;;;;;112.85;52.67;;;0.40;96.70;;;;;;5018067;28;20567;-83
2023/01/20 08:00:19;;;;;;;120.25;61.33;;;0.50;96.80;;;;;;5034790;28;20041;-80
2023/01/20 08:02:45;;;;;;;98.35;41.85;;;0.50;97.00;;;;;;5034407;28;20048;-83
2023/01/20 08:05:11;;;;;;;109.05;49.38;;;0.50;96.90;;;;;;5018218;28;20041;-81
2023/01/20 08:07:36;;;;;;;113.78;55.90;;;0.50;96.80;;;;;;5018069;28;20038;-82
2023/01/20 08:10:03;;;;;;;114.03;64.68;;;0.50;96.80;;;;;;5034086;28;20551;-83
2023/01/20 08:12:30;;;;;;;155.40;92.97;;;0.50;96.70;;;;;;5034323;28;20099;-81
2023/01/20 08:14:55;;;;;;;98.00;45.53;;;0.60;96.70;;;;;;5034193;28;20045;-84
2023/01/20 08:17:22;;;;;;;119.65;64.10;;;0.50;96.70;;;;;;5034436;28;20045;-81
2023/01/20 08:19:47;;;;;;;113.28;54.42;;;0.50;96.70;;;;;;5034422;28;20045;-81
2023/01/20 08:22:13;;;;;;;130.63;69.40;;;0.50;96.70;;;;;;5017758;28;20350;-84
2023/01/20 08:24:39;;;;;;;99.95;48.53;;;0.50;96.70;;;;;;5034187;28;20159;-81
2023/01/20 08:27:04;;;;;;;101.43;47.90;;;0.50;96.70;;;;;;5017439;28;20045;-81
2023/01/20 08:29:32;;;;;;;92.90;40.70;;;0.60;96.70;;;;;;5017826;28;20033;-82
2023/01/20 08:32:01;;;;;;;96.93;44.72;;;0.60;96.80;;;;;;5034180;28;20049;-83
2023/01/20 08:34:27;;;;;;;108.65;47.53;;;0.60;96.80;;;;;;5033928;28;20556;-81
2023/01/20 08:36:56;;;;;;;109.50;50.78;;;0.60;96.70;;;;;;5017612;28;20095;-80
2023/01/20 08:39:22;;;;;;;100.05;45.88;;;0.60;96.70;;;;;;5033674;28;20510;-82
2023/01/20 08:41:49;;;;;;;106.40;62.72;;;0.60;96.70;;;;;;5033892;28;20041;-79
2023/01/20 08:44:16;;;;;;;106.25;46.38;;;0.60;96.60;;;;;;5017307;28;20556;-81
2023/01/20 08:46:43;;;;;;;97.50;42.67;;;0.60;96.70;;;;;;5033555;28;20038;-81
2023/01/20 08:49:12;;;;;;;333.90;205.70;;;0.60;96.70;;;;;;5033531;28;20044;-81
2023/01/20 08:51:38;;;;;;;171.32;96.22;;;0.60;96.80;;;;;;5052906;28;20044;-81
2023/01/20 08:54:04;;;;;;;99.97;40.90;;;0.60;96.80;;;;;;5053788;28;20401;-81
2023/01/20 08:56:30;;;;;;;97.32;39.70;;;0.60;96.80;;;;;;5036482;28;20048;-83
2023/01/20 08:58:58;;;;;;;92.60;40.90;;;0.60;96.80;;;;;;5036260;28;20052;-82
2023/01/20 09:01:26;;;;;;;91.05;38.70;;;0.60;96.80;;;;;;5020197;28;20489;-80
2023/01/20 09:03:53;;;;;;;88.88;35.75;;;0.60;96.70;;;;;;5036651;28;20037;-82
2023/01/20 09:06:20;;;;;;;92.50;40.92;;;0.60;96.70;;;;;;5036693;28;20083;-84
2023/01/20 09:08:50;;;;;;;93.80;40.83;;;0.60;96.60;;;;;;5036382;28;20052;-81
2023/01/20 09:11:18;;;;;;;89.38;36.88;;;0.60;96.60;;;;;;5036593;28;20044;-81
2023/01/20 09:13:45;;;;;;;93.38;39.63;;;0.60;96.70;;;;;;5053109;28;20485;-81
2023/01/20 09:16:15;;;;;;;84.60;35.78;;;0.60;96.70;;;;;;5036387;28;20040;-80
2023/01/20 09:18:41;;;;;;;82.18;38.13;;;0.70;96.80;;;;;;5020548;28;20477;-83
2023/01/20 09:21:08;;;;;;;90.10;37.38;;;0.70;96.70;;;;;;5052920;28;20045;-80
2023/01/20 09:23:36;;;;;;;86.18;36.55;;;0.70;96.70;;;;;;5036477;28;20037;-81
2023/01/20 09:26:04;;;;;;;88.78;35.00;;;0.70;96.70;;;;;;5036500;28;20072;-82
2023/01/20 09:28:30;;;;;;;83.10;35.80;;;0.70;96.70;;;;;;5036374;28;20079;-82
2023/01/20 09:31:04;;;;;;;80.20;35.45;;;0.70;96.70;;;;;;5036211;28;20040;-82
2023/01/20 09:33:30;;;;;;;92.47;37.40;;;0.80;96.70;;;;;;5052850;28;20040;-81
2023/01/20 09:35:58;;;;;;;85.90;35.13;;;0.70;96.70;;;;;;5019694;28;20087;-83
2023/01/20 09:44:35;;;;;;;86.15;37.00;;;0.70;96.70;;;;;;5053081;28;20045;-83
2023/01/20 09:47:19;;;;;;;79.05;34.05;;;0.80;96.80;;;;;;5036152;28;20384;-84
2023/01/20 09:53:03;;;;;;;78.72;36.65;;;0.80;96.70;;;;;;5052648;28;20083;-83
2023/01/20 09:55:49;;;;;;;74.50;32.72;;;0.80;96.60;;;;;;5052298;28;20097;-83
2023/01/20 09:58:38;;;;;;;81.63;33.85;;;0.90;96.50;;;;;;5035850;28;20099;-81
2023/01/20 10:01:32;;;;;;;79.45;35.78;;;0.90;96.50;;;;;;5051891;28;20073;-83
2023/01/20 10:04:20;;;;;;;78.32;32.75;;;0.90;96.60;;;;;;5051611;28;20076;-81
2023/01/20 10:07:06;;;;;;;73.53;30.27;;;0.90;96.50;;;;;;5034934;28;20040;-80
2023/01/20 10:09:53;;;;;;;75.95;31.60;;;0.90;96.60;;;;;;5034643;28;20061;-80
2023/01/20 10:12:29;;;;;;;76.10;34.38;;;0.90;96.60;;;;;;5034949;28;20105;-81
2023/01/20 10:15:08;;;;;;;74.50;34.55;;;0.90;96.50;;;;;;5035035;28;20044;-81
2023/01/20 10:17:41;;;;;;;67.82;32.35;;;1.00;96.50;;;;;;5051953;28;20083;-79
2023/01/20 10:20:44;;;;;;;75.13;34.92;;;1.00;96.50;;;;;;5035111;28;20036;-79
2023/01/20 10:24:01;;;;;;;73.78;32.05;;;1.00;96.50;;;;;;5003001;28;20473;-80
2023/01/20 10:26:32;;;;;;;75.78;30.70;;;1.00;96.50;;;;;;5002766;28;20049;-81
2023/01/20 10:29:00;;;;;;;84.57;34.75;;;1.00;96.50;;;;;;5035168;28;20041;-82
2023/01/20 10:31:30;;;;;;;75.57;30.92;;;1.10;96.50;;;;;;5018975;28;20526;-83
2023/01/20 10:34:00;;;;;;;72.82;33.10;;;1.10;96.50;;;;;;5035251;28;20037;-83
2023/01/20 10:36:28;;;;;;;77.72;31.40;;;1.10;96.40;;;;;;5035280;28;20041;-83
2023/01/20 10:39:24;;;;;;;74.00;32.38;;;1.10;96.40;;;;;;5051872;28;20047;-81
2023/01/20 10:41:51;;;;;;;;;;;1.10;96.40;;;;;;5035570;28;20104;-83
2023/01/20 10:44:17;;;;;;;62.95;29.00;;;1.10;96.40;;;;;;5051693;28;19916;-83
2023/01/20 10:47:08;;;;;;;76.45;31.25;;;1.10;96.30;;;;;;5018610;28;20103;-82
2023/01/20 10:49:51;;;;;;;61.65;27.60;;;1.10;96.40;;;;;;5051563;28;20040;-84
2023/01/20 10:52:44;;;;;;;71.38;31.05;;;1.20;96.30;;;;;;5051520;28;20106;-82
2023/01/20 10:55:28;;;;;;;68.97;29.73;;;1.20;96.30;;;;;;5051365;28;20045;-82
2023/01/20 10:58:00;;;;;;;64.00;28.70;;;1.30;96.30;;;;;;5051746;28;20052;-82
2023/01/20 11:00:30;;;;;;;69.88;30.52;;;1.30;96.30;;;;;;5052048;28;20120;-81
2023/01/20 11:03:01;;;;;;;65.07;29.63;;;1.30;96.20;;;;;;5038887;28;20045;-83
2023/01/20 11:05:37;;;;;;;68.70;28.77;;;1.30;96.20;;;;;;5038904;28;20044;-82
2023/01/20 11:08:18;;;;;;;59.33;26.77;;;1.30;96.20;;;;;;5055752;28;20370;-80
2023/01/20 11:10:45;;;;;;;62.88;29.25;;;1.40;96.20;;;;;;5055172;28;20057;-83
2023/01/20 11:13:11;;;;;;;68.20;27.77;;;1.40;96.10;;;;;;5038763;28;20131;-83
2023/01/20 11:15:44;;;;;;;65.22;31.67;;;1.30;96.10;;;;;;5055684;28;20433;-83
2023/01/20 11:18:13;;;;;;;62.38;29.80;;;1.40;96.10;;;;;;5055338;28;20073;-81
2023/01/20 11:20:58;;;;;;;69.82;29.08;;;1.40;96.10;;;;;;5055181;28;20060;-82
2023/01/20 11:23:40;;;;;;;60.97;27.77;;;1.40;96.10;;;;;;5055242;28;20370;-82
2023/01/20 11:26:16;;;;;;;54.20;26.08;;;1.40;96.10;;;;;;5038636;28;20044;-81
2023/01/20 11:29:22;;;;;;;60.15;27.83;;;1.40;96.10;;;;;;5038551;28;20196;-83
2023/01/20 11:31:50;;;;;;;64.78;28.70;;;1.40;96.10;;;;;;5038235;28;20145;-84
2023/01/20 11:34:25;;;;;;;60.55;28.35;;;1.50;96.10;;;;;;5055243;28;20131;-83
2023/01/20 11:37:15;;;;;;;60.25;26.95;;;1.60;96.10;;;;;;5038703;28;20125;-84
2023/01/20 11:39:50;;;;;;;57.75;26.90;;;1.60;96.10;;;;;;5038653;28;20041;-82
2023/01/20 11:42:24;;;;;;;56.50;27.08;;;1.60;96.00;;;;;;5038204;28;20045;-83
2023/01/20 11:45:00;;;;;;;58.83;28.02;;;1.60;96.00;;;;;;5038356;28;20079;-83
2023/01/20 11:47:43;;;;;;;59.33;27.63;;;1.60;96.00;;;;;;5055370;28;20082;-83
2023/01/20 11:50:09;;;;;;;54.55;27.27;;;1.60;96.00;;;;;;5055273;28;20033;-84
2023/01/20 11:52:36;;;;;;;58.92;27.20;;;1.60;96.00;;;;;;5038555;28;20550;-85
2023/01/20 11:55:09;;;;;;;52.65;25.60;;;1.60;96.00;;;;;;5038132;28;20469;-86
2023/01/20 11:57:45;;;;;;;53.88;25.10;;;1.60;96.00;;;;;;5038249;28;20044;-87
2023/01/20 12:00:35;;;;;;;54.33;26.58;;;1.70;96.00;;;;;;5037894;28;20036;-86
2023/01/20 12:03:09;;;;;;;62.15;25.80;;;1.70;96.00;;;;;;5037991;28;20047;-86
2023/01/20 12:05:47;;;;;;;53.90;26.15;;;1.70;96.00;;;;;;5037943;28;20036;-86
2023/01/20 12:08:37;;;;;;;55.72;25.15;;;1.80;95.90;;;;;;5037931;28;20040;-87
2023/01/20 12:11:06;;;;;;;53.15;26.20;;;1.80;95.90;;;;;;5038026;28;20048;-85
2023/01/20 12:16:26;;;;;;;58.38;24.98;;;1.80;95.90;;;;;;5054468;28;20041;-85
2023/01/20 12:18:56;;;;;;;49.58;24.52;;;1.90;95.80;;;;;;5037801;28;20124;-86
2023/01/20 12:21:28;;;;;;;50.60;24.60;;;1.90;95.90;;;;;;5054315;28;20037;-86
2023/01/20 12:23:55;;;;;;;51.58;23.17;;;1.90;95.80;;;;;;5054633;28;20560;-86
2023/01/20 12:26:23;;;;;;;50.45;23.75;;;1.90;95.80;;;;;;5054411;28;20083;-88
2023/01/20 12:29:03;;;;;;;46.53;23.17;;;1.90;95.80;;;;;;5054503;28;20080;-87
2023/01/20 12:31:30;;;;;;;47.55;23.33;;;1.90;95.80;;;;;;5037748;28;20036;-84
2023/01/20 12:34:04;;;;;;;47.85;24.17;;;1.90;95.80;;;;;;5021001;28;20531;-84
2023/01/20 12:36:49;;;;;;;41.95;23.00;;;2.00;95.80;;;;;;5054040;28;20378;-85
2023/01/20 12:39:42;;;;;;;46.28;23.17;;;1.90;95.70;;;;;;5053854;28;20045;-86
2023/01/20 12:42:39;;;;;;;46.55;20.83;;;1.90;95.70;;;;;;5037187;28;20053;-86
2023/01/20 12:45:34;;;;;;;48.15;22.83;;;2.00;95.70;;;;;;5037252;28;20037;-83
2023/01/20 12:48:06;;;;;;;40.72;20.88;;;2.00;95.70;;;;;;5036926;28;20045;-83
2023/01/20 12:50:56;;;;;;;46.42;23.77;;;1.90;95.60;;;;;;5036780;28;20048;-83
2023/01/20 12:53:47;;;;;;;43.33;22.95;;;1.90;95.50;;;;;;5036883;28;20114;-84
2023/01/20 12:56:45;;;;;;;45.25;21.50;;;1.90;95.50;;;;;;5053500;28;20091;-84
2023/01/20 12:59:15;;;;;;;45.75;22.73;;;2.00;95.40;;;;;;5004286;28;20053;-84